createdAt,value
2019-04-10T00:00:24.714Z,44.13
2019-04-10T00:02:55.546Z,44.57
2019-04-10T00:05:26.041Z,43.73
2019-04-10T00:07:55.758Z,44.60
2019-04-10T00:10:25.757Z,43.80
2019-04-10T00:12:56.149Z,45.63
2019-04-10T00:15:26.360Z,44.97
2019-04-10T00:17:56.036Z,44.27
2019-04-10T00:20:26.664Z,45.47
2019-04-10T00:22:56.234Z,44.83
2019-04-10T00:25:26.548Z,45.27
2019-04-10T00:27:56.336Z,43.93
2019-04-10T00:30:27.057Z,46.00
2019-04-10T00:32:56.860Z,44.30
2019-04-10T00:35:27.307Z,45.77
2019-04-10T00:37:57.540Z,46.97
2019-04-10T00:40:27.671Z,45.03
2019-04-10T00:42:58.600Z,43.97
2019-04-10T00:45:29.308Z,44.50
2019-04-10T00:47:59.569Z,41.20
2019-04-10T00:50:29.296Z,43.23
2019-04-10T00:52:58.826Z,45.03
2019-04-10T00:55:28.819Z,39.47
2019-04-10T00:57:58.655Z,42.33
2019-04-10T01:00:28.800Z,43.40
2019-04-10T01:02:58.831Z,44.70
2019-04-10T01:05:28.548Z,43.13
2019-04-10T01:07:58.342Z,41.90
2019-04-10T01:10:28.563Z,43.37
2019-04-10T01:12:58.717Z,41.57
2019-04-10T01:15:28.873Z,43.47
2019-04-10T01:17:59.088Z,42.07
2019-04-10T01:20:29.345Z,42.93
2019-04-10T01:22:59.462Z,41.70
2019-04-10T01:25:30.182Z,43.80
2019-04-10T01:28:00.535Z,41.97
2019-04-10T01:30:30.567Z,42.37
2019-04-10T01:33:00.735Z,42.17
2019-04-10T01:35:30.589Z,41.87
2019-04-10T01:38:01.471Z,42.47
2019-04-10T01:40:31.454Z,42.67
2019-04-10T01:43:09.289Z,41.50
2019-04-10T01:45:33.439Z,42.63
2019-04-10T01:48:03.764Z,41.23
2019-04-10T01:50:34.993Z,41.37
2019-04-10T01:53:04.465Z,41.10
2019-04-10T01:55:34.735Z,42.37
2019-04-10T01:58:06.781Z,43.10
2019-04-10T02:00:38.115Z,41.47
2019-04-10T02:03:07.721Z,40.63
2019-04-10T02:05:37.288Z,41.20
2019-04-10T02:08:10.355Z,42.30
2019-04-10T02:10:38.500Z,41.30
2019-04-10T02:13:07.996Z,42.03
2019-04-10T02:15:38.397Z,40.47
2019-04-10T02:18:08.875Z,40.17
2019-04-10T02:20:38.863Z,42.10
2019-04-10T02:23:08.577Z,40.90
2019-04-10T02:25:39.083Z,36.13
2019-04-10T02:28:08.995Z,41.93
2019-04-10T02:30:39.592Z,43.07
2019-04-10T02:33:10.743Z,40.80
2019-04-10T02:35:40.857Z,41.33
2019-04-10T02:38:25.932Z,41.77
2019-04-10T02:40:43.240Z,41.57
2019-04-10T02:43:14.435Z,40.67
2019-04-10T02:45:49.370Z,40.17
2019-04-10T02:48:19.456Z,40.23
2019-04-10T02:50:51.425Z,41.97
2019-04-10T02:53:21.717Z,39.47
2019-04-10T02:55:53.552Z,39.63
2019-04-10T02:58:24.273Z,41.63
2019-04-10T03:00:56.205Z,42.23
2019-04-10T03:03:25.797Z,40.00
2019-04-10T03:05:56.545Z,41.83
2019-04-10T03:08:40.998Z,41.23
2019-04-10T03:11:03.607Z,41.57
2019-04-10T03:13:29.341Z,41.27
2019-04-10T03:16:00.165Z,41.83
2019-04-10T03:18:30.542Z,40.33
2019-04-10T03:21:00.202Z,42.03
2019-04-10T03:23:29.697Z,42.13
2019-04-10T03:25:59.486Z,39.57
2019-04-10T03:28:29.469Z,44.00
2019-04-10T03:31:01.115Z,44.33
2019-04-10T03:33:45.435Z,43.23
2019-04-10T03:36:12.113Z,44.23
2019-04-10T03:38:54.495Z,46.57
2019-04-10T03:41:12.725Z,41.67
2019-04-10T03:43:42.204Z,43.37
2019-04-10T03:46:11.655Z,42.67
2019-04-10T03:48:41.142Z,44.70
2019-04-10T03:51:10.590Z,44.00
2019-04-10T03:53:40.356Z,43.43
2019-04-10T03:56:09.760Z,44.93
2019-04-10T03:58:39.795Z,44.40
2019-04-10T04:01:09.776Z,43.87
2019-04-10T04:03:39.290Z,43.47
2019-04-10T04:06:09.067Z,43.43
2019-04-10T04:08:39.522Z,44.47
2019-04-10T04:11:09.409Z,45.77
2019-04-10T04:13:39.694Z,46.27
2019-04-10T04:16:09.190Z,46.03
2019-04-10T04:18:39.414Z,46.57
2019-04-10T04:21:09.724Z,47.77
2019-04-10T04:23:39.242Z,44.30
2019-04-10T04:26:08.702Z,45.33
2019-04-10T04:28:38.164Z,45.00
2019-04-10T04:31:07.803Z,44.90
2019-04-10T04:33:38.844Z,44.00
2019-04-10T04:36:08.566Z,45.53
2019-04-10T04:38:38.924Z,43.50
2019-04-10T04:41:09.015Z,44.23
2019-04-10T04:43:39.150Z,42.87
2019-04-10T04:46:10.112Z,43.40
2019-04-10T04:48:39.660Z,44.40
2019-04-10T04:51:09.112Z,42.90
2019-04-10T04:53:39.891Z,43.13
2019-04-10T04:56:09.544Z,42.50
2019-04-10T04:58:39.292Z,41.33
2019-04-10T05:01:17.203Z,41.63
2019-04-10T05:03:46.766Z,40.40
2019-04-10T05:06:16.279Z,40.43
2019-04-10T05:08:46.300Z,39.23
2019-04-10T05:11:16.201Z,38.10
2019-04-10T05:13:46.746Z,41.43
2019-04-10T05:16:16.603Z,38.27
2019-04-10T05:18:46.112Z,37.00
2019-04-10T05:21:16.973Z,36.17
2019-04-10T05:23:47.017Z,37.33
2019-04-10T05:26:16.635Z,36.50
2019-04-10T05:28:46.672Z,35.57
2019-04-10T05:31:17.251Z,37.43
2019-04-10T05:33:47.603Z,34.67
2019-04-10T05:36:17.344Z,31.47
2019-04-10T05:38:46.893Z,32.67
2019-04-10T05:41:17.505Z,29.40
2019-04-10T05:43:47.095Z,32.83
2019-04-10T05:46:16.707Z,28.07
2019-04-10T05:48:46.275Z,28.83
2019-04-10T05:51:17.027Z,27.17
2019-04-10T05:53:47.072Z,27.43
2019-04-10T05:56:19.065Z,26.70
2019-04-10T05:58:49.108Z,28.37
2019-04-10T06:01:31.339Z,26.97
2019-04-10T06:03:50.208Z,25.73
2019-04-10T06:06:20.078Z,27.13
2019-04-10T06:08:49.592Z,24.27
2019-04-10T06:11:19.045Z,24.13
2019-04-10T06:13:49.008Z,24.10
2019-04-10T06:16:19.543Z,24.50
2019-04-10T06:18:49.353Z,22.80
2019-04-10T06:21:19.153Z,22.87
2019-04-10T06:23:49.768Z,22.40
2019-04-10T06:26:19.852Z,22.63
2019-04-10T06:28:50.485Z,22.07
2019-04-10T06:31:20.746Z,20.83
2019-04-10T06:33:50.709Z,20.33
2019-04-10T06:36:20.132Z,21.47
2019-04-10T06:38:49.608Z,22.17
2019-04-10T06:41:20.049Z,23.07
2019-04-10T06:43:49.688Z,19.57
2019-04-10T06:46:20.123Z,19.47
2019-04-10T06:48:50.038Z,19.53
2019-04-10T06:51:21.253Z,18.33
2019-04-10T06:54:01.842Z,16.63
2019-04-10T06:56:22.251Z,17.80
2019-04-10T06:58:52.014Z,16.80
2019-04-10T07:01:24.281Z,17.07
2019-04-10T07:04:00.931Z,16.80
2019-04-10T07:06:42.721Z,16.60
2019-04-10T07:08:55.520Z,16.63
2019-04-10T07:11:28.400Z,16.07
2019-04-10T07:13:57.381Z,17.03
2019-04-10T07:16:29.999Z,15.57
2019-04-10T07:19:02.743Z,15.83
2019-04-10T07:21:32.904Z,15.00
2019-04-10T07:24:05.332Z,14.47
2019-04-10T07:26:39.325Z,15.00
2019-04-10T07:29:04.646Z,14.10
2019-04-10T07:31:36.311Z,14.70
2019-04-10T07:34:06.683Z,15.10
2019-04-10T07:36:39.921Z,13.63
2019-04-10T07:39:07.898Z,14.37
2019-04-10T07:41:37.778Z,13.20
2019-04-10T07:44:08.277Z,12.47
2019-04-10T07:46:38.213Z,13.40
2019-04-10T07:49:08.548Z,13.40
2019-04-10T07:51:38.898Z,12.33
2019-04-10T07:54:08.782Z,12.43
2019-04-10T07:56:39.292Z,12.43
2019-04-10T07:59:09.277Z,12.60
2019-04-10T08:01:40.440Z,13.17
2019-04-10T08:04:10.442Z,12.43
2019-04-10T08:06:39.925Z,12.53
2019-04-10T08:09:10.518Z,12.20
2019-04-10T08:11:40.234Z,11.40
2019-04-10T08:14:10.588Z,11.43
2019-04-10T08:16:40.094Z,12.17
2019-04-10T08:19:10.399Z,12.67
2019-04-10T08:21:40.330Z,11.43
2019-04-10T08:24:09.867Z,11.90
2019-04-10T08:26:39.421Z,11.67
2019-04-10T08:29:09.911Z,11.93
2019-04-10T08:31:39.734Z,12.13
2019-04-10T08:34:09.239Z,12.23
2019-04-10T08:36:39.476Z,12.43
2019-04-10T08:39:09.238Z,12.00
2019-04-10T08:41:38.752Z,12.20
2019-04-10T08:44:08.243Z,13.20
2019-04-10T08:46:38.022Z,12.23
2019-04-10T08:49:07.822Z,11.57
2019-04-10T08:51:37.439Z,11.67
2019-04-10T08:54:07.900Z,11.03
2019-04-10T08:56:38.606Z,11.90
2019-04-10T08:59:08.155Z,11.83
2019-04-10T09:01:37.712Z,11.00
2019-04-10T09:04:07.763Z,11.20
2019-04-10T09:06:37.752Z,10.07
2019-04-10T09:09:07.735Z,11.17
2019-04-10T09:11:37.576Z,10.33
2019-04-10T09:14:07.123Z,11.10
2019-04-10T09:16:36.731Z,10.87
2019-04-10T09:19:06.177Z,10.57
2019-04-10T09:21:35.663Z,10.40
2019-04-10T09:24:05.148Z,10.90
2019-04-10T09:26:34.632Z,10.50
2019-04-10T09:29:04.609Z,10.40
2019-04-10T09:31:34.047Z,10.50
2019-04-10T09:34:03.678Z,10.80
2019-04-10T09:36:33.374Z,9.90
2019-04-10T09:39:05.268Z,9.70
2019-04-10T09:41:34.835Z,9.23
2019-04-10T09:44:04.517Z,9.20
2019-04-10T09:46:35.002Z,9.97
2019-04-10T09:49:05.523Z,10.50
2019-04-10T09:51:36.168Z,9.77
2019-04-10T09:54:05.827Z,10.67
2019-04-10T09:56:36.407Z,10.53
2019-04-10T09:59:06.006Z,10.53
2019-04-10T10:01:35.844Z,10.90
2019-04-10T10:04:05.370Z,10.13
2019-04-10T10:06:36.655Z,9.93
2019-04-10T10:09:08.359Z,9.73
2019-04-10T10:11:38.600Z,10.23
2019-04-10T10:14:08.332Z,9.63
2019-04-10T10:16:38.062Z,9.93
2019-04-10T10:19:07.957Z,9.23
2019-04-10T10:21:38.814Z,9.63
2019-04-10T10:24:08.662Z,10.13
2019-04-10T10:26:38.312Z,9.87
2019-04-10T10:29:07.712Z,9.80
2019-04-10T10:31:38.023Z,9.50
2019-04-10T10:34:08.128Z,9.17
2019-04-10T10:36:41.868Z,9.80
2019-04-10T10:39:18.876Z,9.23
2019-04-10T10:41:49.043Z,11.60
2019-04-10T10:44:19.343Z,10.57
2019-04-10T10:46:49.540Z,10.10
2019-04-10T10:49:20.158Z,10.10
2019-04-10T10:51:49.633Z,10.40
2019-04-10T10:54:19.084Z,9.43
2019-04-10T10:56:48.917Z,9.60
2019-04-10T10:59:19.603Z,10.70
2019-04-10T11:01:49.186Z,12.07
2019-04-10T11:04:19.105Z,12.33
2019-04-10T11:06:56.066Z,10.87
2019-04-10T11:09:19.904Z,10.93
2019-04-10T11:11:49.531Z,10.73
2019-04-10T11:14:19.189Z,11.23
2019-04-10T11:16:49.473Z,10.80
2019-04-10T11:19:19.832Z,11.90
2019-04-10T11:21:49.713Z,11.60
2019-04-10T11:24:19.635Z,10.57
2019-04-10T11:26:50.414Z,10.80
2019-04-10T11:29:21.818Z,10.07
2019-04-10T11:31:51.856Z,10.50
2019-04-10T11:34:22.619Z,11.03
2019-04-10T11:37:12.908Z,11.57
2019-04-10T11:39:28.253Z,12.23
2019-04-10T11:41:55.321Z,12.47
2019-04-10T11:44:28.212Z,12.80
2019-04-10T11:46:58.977Z,12.97
2019-04-10T11:49:29.478Z,13.70
2019-04-10T11:52:01.430Z,12.20
2019-04-10T11:54:32.764Z,11.43
2019-04-10T11:57:03.238Z,11.50
2019-04-10T11:59:35.989Z,13.50
2019-04-10T12:04:45.049Z,12.03
2019-04-10T12:07:09.748Z,13.03
2019-04-10T12:12:09.431Z,11.60
2019-04-10T12:14:39.621Z,13.53
2019-04-10T12:17:09.650Z,12.20
2019-04-10T12:19:39.180Z,12.70
2019-04-10T12:22:09.504Z,12.10
2019-04-10T12:24:39.223Z,12.43
2019-04-10T12:27:09.195Z,12.43
2019-04-10T12:29:38.744Z,11.13
2019-04-10T12:32:08.437Z,11.70
2019-04-10T12:34:37.903Z,11.87
2019-04-10T12:37:07.438Z,11.93
2019-04-10T12:39:36.894Z,12.40
2019-04-10T12:42:07.942Z,11.20
2019-04-10T12:44:39.469Z,11.90
2019-04-10T12:47:08.622Z,11.80
2019-04-10T12:49:39.358Z,11.67
2019-04-10T12:52:10.080Z,12.33
2019-04-10T12:54:40.490Z,11.93
2019-04-10T12:57:10.602Z,11.63
2019-04-10T12:59:41.635Z,11.90
2019-04-10T13:02:12.326Z,12.37
2019-04-10T13:04:42.929Z,11.20
2019-04-10T13:07:13.643Z,11.20
2019-04-10T13:09:44.281Z,11.70
2019-04-10T13:12:13.838Z,10.67
2019-04-10T13:14:43.297Z,11.30
2019-04-10T13:17:13.052Z,10.73
2019-04-10T13:19:42.963Z,11.17
2019-04-10T13:22:12.714Z,10.93
2019-04-10T13:24:42.293Z,10.93
2019-04-10T13:27:12.577Z,10.80
2019-04-10T13:29:42.667Z,10.57
2019-04-10T13:32:12.184Z,9.47
2019-04-10T13:34:41.731Z,10.00
2019-04-10T13:37:12.327Z,9.80
2019-04-10T13:39:41.826Z,9.47
2019-04-10T13:42:11.377Z,10.00
2019-04-10T13:44:41.212Z,10.33
2019-04-10T13:47:10.717Z,11.20
2019-04-10T13:49:40.183Z,9.20
2019-04-10T13:52:09.996Z,9.27
2019-04-10T13:54:39.477Z,8.97
2019-04-10T13:57:09.790Z,8.80
2019-04-10T13:59:39.457Z,9.63
2019-04-10T14:02:10.660Z,9.50
2019-04-10T14:04:45.226Z,8.80
2019-04-10T14:07:17.947Z,9.80
2019-04-10T14:09:52.414Z,9.17
2019-04-10T14:12:24.945Z,10.33
2019-04-10T14:14:57.241Z,9.87
2019-04-10T14:17:58.085Z,8.83
2019-04-10T14:20:31.250Z,9.67
2019-04-10T14:23:08.333Z,8.87
2019-04-10T14:26:02.264Z,9.07
2019-04-10T14:28:37.522Z,8.83
2019-04-10T14:31:42.846Z,9.10
2019-04-10T14:34:20.223Z,9.17
2019-04-10T14:36:54.804Z,9.03
2019-04-10T14:39:29.999Z,9.13
2019-04-10T14:42:04.401Z,9.40
2019-04-10T14:44:40.940Z,10.00
2019-04-10T14:47:21.264Z,9.33
2019-04-10T14:49:54.895Z,8.53
2019-04-10T14:52:31.057Z,9.23
2019-04-10T14:55:01.954Z,9.30
2019-04-10T14:57:39.008Z,9.70
2019-04-10T15:00:20.239Z,9.47
2019-04-10T15:02:51.390Z,10.10
2019-04-10T15:05:26.013Z,10.10
2019-04-10T15:07:59.981Z,9.27
2019-04-10T15:10:42.075Z,9.30
2019-04-10T15:13:17.731Z,9.67
2019-04-10T15:15:45.119Z,8.67
2019-04-10T15:18:20.482Z,9.30
2019-04-10T15:21:00.844Z,8.77
2019-04-10T15:23:35.768Z,9.87
2019-04-10T15:26:13.420Z,10.47
2019-04-10T15:28:47.772Z,10.67
2019-04-10T15:31:19.394Z,11.97
2019-04-10T15:33:51.888Z,9.30
2019-04-10T15:36:29.749Z,10.07
2019-04-10T15:39:00.327Z,9.47
2019-04-10T15:41:39.340Z,9.77
2019-04-10T15:44:28.398Z,9.83
2019-04-10T15:47:15.166Z,10.67
2019-04-10T15:49:44.995Z,10.03
2019-04-10T15:52:24.616Z,9.47
2019-04-10T15:54:50.040Z,9.77
2019-04-10T15:57:22.761Z,10.17
2019-04-10T15:59:55.176Z,10.10
2019-04-10T16:02:30.568Z,9.50
2019-04-10T16:05:04.822Z,9.50
2019-04-10T16:07:42.893Z,9.40
2019-04-10T16:10:19.460Z,9.17
2019-04-10T16:13:00.697Z,10.27
2019-04-10T16:15:41.287Z,8.83
2019-04-10T16:18:28.443Z,9.80
2019-04-10T16:21:04.097Z,8.77
2019-04-10T16:23:44.231Z,11.43
2019-04-10T16:26:17.164Z,9.17
2019-04-10T16:28:56.407Z,8.90
2019-04-10T16:31:23.593Z,9.60
2019-04-10T16:34:00.869Z,8.67
2019-04-10T16:36:38.894Z,8.93
2019-04-10T16:39:15.447Z,9.07
2019-04-10T16:41:54.511Z,9.40
2019-04-10T16:44:24.811Z,9.47
2019-04-10T16:46:55.336Z,9.00
2019-04-10T16:49:24.857Z,9.17
2019-04-10T16:51:54.500Z,8.93
2019-04-10T16:54:25.033Z,9.17
2019-04-10T16:56:56.202Z,12.17
2019-04-10T16:59:26.157Z,9.87
2019-04-10T17:02:00.315Z,9.70
2019-04-10T17:04:29.881Z,9.77
2019-04-10T17:06:59.334Z,9.37
2019-04-10T17:09:29.886Z,9.27
2019-04-10T17:11:59.340Z,9.77
2019-04-10T17:14:29.325Z,9.87
2019-04-10T17:16:58.879Z,9.40
2019-04-10T17:19:28.761Z,8.60
2019-04-10T17:21:58.821Z,9.23
2019-04-10T17:24:29.291Z,9.43
2019-04-10T17:26:59.328Z,8.33
2019-04-10T17:29:29.393Z,9.20
2019-04-10T17:31:59.287Z,10.40
2019-04-10T17:34:29.021Z,10.10
2019-04-10T17:36:59.186Z,10.23
2019-04-10T17:39:28.745Z,10.40
2019-04-10T17:41:58.200Z,10.37
2019-04-10T17:44:27.723Z,10.17
2019-04-10T17:46:57.626Z,10.27
2019-04-10T17:49:27.699Z,10.77
2019-04-10T17:51:58.706Z,10.50
2019-04-10T17:54:29.762Z,9.97
2019-04-10T17:57:00.296Z,10.13
2019-04-10T17:59:30.241Z,10.47
2019-04-10T18:02:01.666Z,10.90
2019-04-10T18:04:31.907Z,10.03
2019-04-10T18:07:01.757Z,10.30
2019-04-10T18:09:32.699Z,9.53
2019-04-10T18:12:02.217Z,10.77
2019-04-10T18:14:31.648Z,10.57
2019-04-10T18:17:02.530Z,10.63
2019-04-10T18:19:32.442Z,9.90
2019-04-10T18:22:02.428Z,10.57
2019-04-10T18:24:33.133Z,10.67
2019-04-10T18:27:03.754Z,10.73
2019-04-10T18:29:33.244Z,10.07
2019-04-10T18:32:02.783Z,9.97
2019-04-10T18:34:33.378Z,10.07
2019-04-10T18:37:04.383Z,11.20
2019-04-10T18:39:34.640Z,10.77
2019-04-10T18:42:05.567Z,10.23
2019-04-10T18:44:35.321Z,10.87
2019-04-10T18:47:05.004Z,10.83
2019-04-10T18:49:34.389Z,11.77
2019-04-10T18:52:03.951Z,11.50
2019-04-10T18:54:34.000Z,12.33
2019-04-10T18:57:05.291Z,12.90
2019-04-10T18:59:39.325Z,11.03
2019-04-10T19:02:28.429Z,10.83
2019-04-10T19:05:14.001Z,11.13
2019-04-10T19:07:43.492Z,11.30
2019-04-10T19:10:12.948Z,11.20
2019-04-10T19:12:43.222Z,10.93
2019-04-10T19:15:13.250Z,10.63
2019-04-10T19:17:43.478Z,10.70
2019-04-10T19:20:13.503Z,10.70
2019-04-10T19:22:44.664Z,11.13
2019-04-10T19:25:14.576Z,10.97
2019-04-10T19:27:44.589Z,11.07
2019-04-10T19:30:17.152Z,10.10
2019-04-10T19:32:47.771Z,11.80
2019-04-10T19:35:17.562Z,10.67
2019-04-10T19:37:49.986Z,10.73
2019-04-10T19:40:19.190Z,10.70
2019-04-10T19:42:49.384Z,12.90
2019-04-10T19:45:19.514Z,10.97
2019-04-10T19:47:49.223Z,10.30
2019-04-10T19:50:19.442Z,11.60
2019-04-10T19:52:49.060Z,10.10
2019-04-10T19:55:19.813Z,10.60
2019-04-10T19:57:49.855Z,10.57
2019-04-10T20:00:22.156Z,9.83
2019-04-10T20:02:51.610Z,10.50
2019-04-10T20:05:21.215Z,9.97
2019-04-10T20:07:51.395Z,11.77
2019-04-10T20:10:21.350Z,9.87
2019-04-10T20:12:51.090Z,11.80
2019-04-10T20:15:20.566Z,9.17
2019-04-10T20:17:50.410Z,10.97
2019-04-10T20:20:20.017Z,9.20
2019-04-10T20:22:50.121Z,10.93
2019-04-10T20:25:20.111Z,8.23
2019-04-10T20:27:50.103Z,9.03
2019-04-10T20:30:21.505Z,9.67
2019-04-10T20:32:50.972Z,10.27
2019-04-10T20:35:20.487Z,8.83
2019-04-10T20:37:51.151Z,8.33
2019-04-10T20:40:20.837Z,8.93
2019-04-10T20:42:50.859Z,8.77
2019-04-10T20:45:21.124Z,9.27
2019-04-10T20:47:51.843Z,9.00
2019-04-10T20:50:21.398Z,8.80
2019-04-10T20:52:51.562Z,10.97
2019-04-10T20:55:21.635Z,9.83
2019-04-10T20:57:52.075Z,10.30
2019-04-10T21:00:30.154Z,10.37
2019-04-10T21:03:00.670Z,12.17
2019-04-10T21:05:30.185Z,10.90
2019-04-10T21:07:59.893Z,12.57
2019-04-10T21:10:29.419Z,11.37
2019-04-10T21:12:59.680Z,12.30
2019-04-10T21:15:29.973Z,10.90
2019-04-10T21:17:59.463Z,12.47
2019-04-10T21:20:28.931Z,12.10
2019-04-10T21:22:58.473Z,13.00
2019-04-10T21:25:27.939Z,10.93
2019-04-10T21:27:57.832Z,13.23
2019-04-10T21:30:29.003Z,11.17
2019-04-10T21:33:16.824Z,13.30
2019-04-10T21:35:47.656Z,12.93
2019-04-10T21:38:17.302Z,13.13
2019-04-10T21:40:47.409Z,13.80
2019-04-10T21:43:16.941Z,13.50
2019-04-10T21:45:47.560Z,13.13
2019-04-10T21:48:17.026Z,13.97
2019-04-10T21:50:46.516Z,13.73
2019-04-10T21:53:16.452Z,11.40
2019-04-10T21:55:45.986Z,14.20
2019-04-10T21:58:16.365Z,14.83
2019-04-10T22:00:53.120Z,13.33
2019-04-10T22:03:23.464Z,14.70
2019-04-10T22:06:00.005Z,15.00
2019-04-10T22:08:37.152Z,14.30
2019-04-10T22:11:08.434Z,15.23
2019-04-10T22:13:38.094Z,14.20
2019-04-10T22:16:09.443Z,14.67
2019-04-10T22:18:39.408Z,14.87
2019-04-10T22:21:09.342Z,12.40
2019-04-10T22:23:38.793Z,13.77
2019-04-10T22:26:09.255Z,14.73
2019-04-10T22:28:39.351Z,14.80
2019-04-10T22:31:09.622Z,14.13
2019-04-10T22:33:40.443Z,14.53
2019-04-10T22:36:10.972Z,14.10
2019-04-10T22:38:41.855Z,14.27
2019-04-10T22:41:20.635Z,15.00
2019-04-10T22:43:44.970Z,14.33
2019-04-10T22:46:15.126Z,14.30
2019-04-10T22:48:45.531Z,14.07
2019-04-10T22:51:15.261Z,14.83
2019-04-10T22:53:45.869Z,14.80
2019-04-10T22:56:15.764Z,15.10
2019-04-10T22:58:45.630Z,13.90
2019-04-10T23:01:15.614Z,14.30
2019-04-10T23:03:45.382Z,15.17
2019-04-10T23:06:15.295Z,14.60
2019-04-10T23:08:44.918Z,14.10
2019-04-10T23:11:15.229Z,13.47
2019-04-10T23:13:45.879Z,14.10
2019-04-10T23:16:17.110Z,15.90
2019-04-10T23:18:47.677Z,14.83
2019-04-10T23:21:18.549Z,14.53
2019-04-10T23:23:48.921Z,12.87
2019-04-10T23:26:20.733Z,14.50
2019-04-10T23:28:51.709Z,15.07
2019-04-10T23:31:21.623Z,14.37
2019-04-10T23:33:52.347Z,14.90
2019-04-10T23:36:23.543Z,14.83
2019-04-10T23:38:53.480Z,13.93
2019-04-10T23:41:23.368Z,15.07
2019-04-10T23:43:53.640Z,15.00
2019-04-10T23:46:23.555Z,14.73
2019-04-10T23:48:53.443Z,15.00
2019-04-10T23:51:23.357Z,13.07
2019-04-10T23:53:53.138Z,15.20
2019-04-10T23:56:22.620Z,14.43
2019-04-10T23:58:52.083Z,14.90
